createdAt,value
2022-11-12T00:04:09.284Z,6.50
2022-11-12T00:09:11.828Z,6.10
2022-11-12T00:14:14.375Z,6.30
2022-11-12T00:19:16.978Z,6.00
2022-11-12T00:24:19.518Z,5.10
2022-11-12T00:29:22.189Z,5.90
2022-11-12T00:34:24.731Z,6.10
2022-11-12T00:39:28.233Z,6.20
2022-11-12T00:44:30.799Z,5.20
2022-11-12T00:49:33.323Z,5.70
2022-11-12T00:54:35.883Z,6.00
2022-11-12T00:59:38.403Z,5.70
2022-11-12T01:04:40.925Z,5.90
2022-11-12T01:09:43.465Z,6.20
2022-11-12T01:14:46.051Z,4.30
2022-11-12T01:19:48.595Z,5.90
2022-11-12T01:24:51.143Z,6.10
2022-11-12T01:29:53.706Z,5.70
2022-11-12T01:34:56.276Z,4.70
2022-11-12T01:39:58.930Z,6.50
2022-11-12T01:45:01.540Z,6.00
2022-11-12T01:50:08.031Z,6.20
2022-11-12T01:55:16.584Z,7.00
2022-11-12T02:00:19.507Z,7.30
2022-11-12T02:05:24.744Z,5.60
2022-11-12T02:10:27.767Z,6.40
2022-11-12T02:15:30.585Z,5.80
2022-11-12T02:20:34.694Z,6.30
2022-11-12T02:25:37.356Z,7.20
2022-11-12T02:30:44.767Z,6.30
2022-11-12T02:35:47.300Z,6.40
2022-11-12T02:40:49.918Z,5.90
2022-11-12T02:45:52.497Z,4.90
2022-11-12T02:50:55.031Z,5.70
2022-11-12T02:55:57.589Z,6.40
2022-11-12T03:01:00.314Z,6.10
2022-11-12T03:06:02.932Z,5.80
2022-11-12T03:11:11.187Z,5.70
2022-11-12T03:16:13.988Z,6.10
2022-11-12T03:21:16.563Z,6.70
2022-11-12T03:26:19.104Z,6.60
2022-11-12T03:31:21.670Z,6.40
2022-11-12T03:36:24.218Z,4.70
2022-11-12T03:41:27.114Z,5.40
2022-11-12T03:46:29.674Z,6.00
2022-11-12T03:51:32.363Z,6.30
2022-11-12T03:56:34.913Z,5.60
2022-11-12T04:01:37.602Z,6.00
2022-11-12T04:06:44.287Z,6.20
2022-11-12T04:11:47.273Z,6.20
2022-11-12T04:16:52.734Z,6.80
2022-11-12T04:22:06.328Z,7.30
2022-11-12T04:27:12.704Z,8.10
2022-11-12T04:32:17.870Z,8.00
2022-11-12T04:37:23.641Z,7.40
2022-11-12T04:42:31.625Z,7.40
2022-11-12T04:47:38.463Z,10.80
2022-11-12T04:52:41.105Z,9.10
2022-11-12T04:57:43.689Z,9.70
2022-11-12T05:02:46.230Z,8.50
2022-11-12T05:07:48.873Z,10.20
2022-11-12T05:12:51.397Z,10.70
2022-11-12T05:17:54.058Z,12.40
2022-11-12T05:23:06.699Z,8.50
2022-11-12T05:28:10.066Z,8.40
2022-11-12T05:33:12.690Z,6.90
2022-11-12T05:38:15.206Z,6.50
2022-11-12T05:43:17.839Z,6.30
2022-11-12T05:48:24.384Z,6.20
2022-11-12T05:53:27.124Z,6.60
2022-11-12T05:58:32.429Z,6.10
2022-11-12T06:03:34.970Z,6.30
2022-11-12T06:08:37.658Z,6.70
2022-11-12T06:13:40.518Z,6.20
2022-11-12T06:18:43.127Z,5.70
2022-11-12T06:23:46.643Z,6.40
2022-11-12T06:28:50.038Z,5.20
2022-11-12T06:33:52.695Z,5.40
2022-11-12T06:38:57.330Z,5.80
2022-11-12T06:43:59.835Z,6.00
2022-11-12T06:49:02.538Z,6.40
2022-11-12T06:54:05.517Z,4.60
2022-11-12T06:59:08.043Z,5.60
2022-11-12T07:04:10.615Z,6.30
2022-11-12T07:09:13.160Z,6.60
2022-11-12T07:14:15.729Z,6.40
2022-11-12T07:19:18.249Z,5.70
2022-11-12T07:24:20.776Z,6.10
2022-11-12T07:29:42.565Z,5.20
2022-11-12T07:34:45.885Z,6.30
2022-11-12T07:39:48.436Z,6.60
2022-11-12T07:44:50.995Z,6.20
2022-11-12T07:49:53.621Z,6.00
2022-11-12T07:54:56.200Z,6.20
2022-11-12T07:59:58.725Z,6.40
2022-11-12T08:05:01.319Z,5.80
2022-11-12T08:10:06.630Z,6.30
2022-11-12T08:15:09.597Z,6.40
2022-11-12T08:20:13.005Z,5.70
2022-11-12T08:25:15.709Z,6.80
2022-11-12T08:30:18.388Z,6.90
2022-11-12T08:35:21.193Z,8.20
2022-11-12T08:40:23.707Z,7.60
2022-11-12T08:45:27.052Z,8.30
2022-11-12T08:50:30.343Z,12.20
2022-11-12T08:55:36.028Z,10.50
2022-11-12T09:00:41.781Z,11.50
2022-11-12T09:05:44.595Z,11.30
2022-11-12T09:10:47.806Z,11.70
2022-11-12T09:15:50.506Z,11.10
2022-11-12T09:20:53.049Z,10.80
2022-11-12T09:25:57.683Z,11.90
2022-11-12T09:31:01.901Z,8.60
2022-11-12T09:36:05.965Z,15.50
2022-11-12T09:41:17.245Z,14.80
2022-11-12T09:46:27.955Z,11.50
2022-11-12T09:51:34.519Z,11.80
2022-11-12T09:56:37.076Z,10.90
2022-11-12T10:01:41.713Z,11.20
2022-11-12T10:07:26.039Z,14.60
2022-11-12T10:12:37.589Z,13.90
2022-11-12T10:17:48.498Z,11.40
2022-11-12T10:23:03.485Z,11.40
2022-11-12T10:28:19.815Z,14.20
2022-11-12T10:33:22.752Z,14.00
2022-11-12T10:38:27.909Z,10.40
2022-11-12T10:43:30.665Z,9.70
2022-11-12T10:48:34.221Z,8.60
2022-11-12T10:53:40.404Z,11.20
2022-11-12T11:03:52.829Z,11.60
2022-11-12T11:09:17.401Z,10.60
2022-11-12T11:14:21.956Z,15.00
2022-11-12T11:19:36.359Z,11.00
2022-11-12T11:24:44.589Z,10.20
2022-11-12T11:29:53.027Z,11.40
2022-11-12T11:35:00.462Z,10.70
2022-11-12T11:40:06.646Z,9.80
2022-11-12T11:45:34.083Z,7.50
2022-11-12T11:50:46.496Z,8.50
2022-11-12T11:55:56.166Z,10.30
2022-11-12T12:01:16.179Z,9.80
2022-11-12T12:06:24.325Z,11.30
2022-11-12T12:11:36.340Z,10.20
2022-11-12T12:16:41.756Z,9.50
2022-11-12T12:21:48.651Z,8.80
2022-11-12T12:26:58.469Z,9.00
2022-11-12T12:32:04.972Z,6.40
2022-11-12T12:37:24.984Z,5.00
2022-11-12T12:42:33.836Z,5.20
2022-11-12T12:47:43.292Z,5.50
2022-11-12T12:52:51.655Z,6.00
2022-11-12T12:58:01.970Z,5.30
2022-11-12T13:03:05.473Z,5.90
2022-11-12T13:08:11.579Z,4.90
2022-11-12T13:13:17.002Z,4.50
2022-11-12T13:18:42.806Z,5.20
2022-11-12T13:23:52.791Z,6.40
2022-11-12T13:29:01.157Z,5.00
2022-11-12T13:34:09.680Z,4.30
2022-11-12T13:39:18.326Z,4.60
2022-11-12T13:44:21.568Z,5.00
2022-11-12T13:49:24.149Z,5.50
2022-11-12T13:54:32.998Z,5.10
2022-11-12T13:59:35.532Z,6.00
2022-11-12T14:04:38.081Z,6.80
2022-11-12T14:09:48.002Z,7.10
2022-11-12T14:15:03.290Z,5.80
2022-11-12T14:20:11.657Z,5.60
2022-11-12T14:25:22.165Z,5.00
2022-11-12T14:30:26.130Z,5.10
2022-11-12T14:35:33.183Z,4.80
2022-11-12T14:40:42.178Z,6.30
2022-11-12T14:45:48.926Z,5.70
2022-11-12T14:51:00.474Z,5.90
2022-11-12T14:56:06.238Z,5.80
2022-11-12T15:06:34.679Z,10.50
2022-11-12T15:11:46.097Z,9.70
2022-11-12T15:16:48.852Z,8.00
2022-11-12T15:21:53.356Z,6.90
2022-11-12T15:26:58.279Z,7.90
2022-11-12T15:32:03.466Z,11.40
2022-11-12T15:37:10.724Z,14.40
2022-11-12T15:42:23.805Z,16.50
2022-11-12T15:47:26.554Z,13.20
2022-11-12T15:52:29.095Z,13.10
2022-11-12T15:57:38.048Z,8.60
2022-11-12T16:02:40.805Z,9.10
2022-11-12T16:07:43.406Z,9.80
2022-11-12T16:12:48.152Z,10.40
2022-11-12T16:17:52.611Z,12.50
2022-11-12T16:22:55.749Z,13.80
2022-11-12T16:28:01.034Z,15.60
2022-11-12T16:33:03.723Z,15.70
2022-11-12T16:38:14.322Z,12.90
2022-11-12T16:43:17.194Z,10.90
2022-11-12T16:48:21.744Z,13.60
2022-11-12T16:53:24.664Z,17.40
2022-11-12T16:58:27.358Z,17.10
2022-11-12T17:03:30.216Z,24.60
2022-11-12T17:08:34.179Z,17.70
2022-11-12T17:13:38.667Z,15.80
2022-11-12T17:18:41.398Z,18.40
2022-11-12T17:23:44.584Z,19.20
2022-11-12T17:28:48.367Z,16.70
2022-11-12T17:33:52.522Z,19.20
2022-11-12T17:38:56.449Z,18.30
2022-11-12T17:44:00.896Z,16.20
2022-11-12T17:49:03.918Z,15.80
2022-11-12T17:54:07.040Z,13.40
2022-11-12T17:59:09.638Z,12.50
2022-11-12T18:04:12.769Z,16.70
2022-11-12T18:09:15.850Z,13.80
2022-11-12T18:14:18.848Z,13.70
2022-11-12T18:19:21.493Z,14.20
2022-11-12T18:24:24.095Z,15.50
2022-11-12T18:29:26.632Z,17.30
2022-11-12T18:34:29.166Z,16.00
2022-11-12T18:39:32.235Z,16.80
2022-11-12T18:44:34.863Z,14.40
2022-11-12T18:49:37.454Z,13.90
2022-11-12T18:54:40.043Z,13.40
2022-11-12T18:59:42.572Z,14.70
2022-11-12T19:04:45.668Z,14.00
2022-11-12T19:09:48.257Z,13.40
2022-11-12T19:14:50.810Z,13.60
2022-11-12T19:19:53.373Z,16.60
2022-11-12T19:24:56.043Z,19.20
2022-11-12T19:30:02.926Z,18.60
2022-11-12T19:35:06.654Z,16.70
2022-11-12T19:40:10.781Z,16.10
2022-11-12T19:45:15.991Z,17.70
2022-11-12T19:50:24.361Z,19.00
2022-11-12T19:55:28.915Z,19.30
2022-11-12T20:00:31.531Z,18.20
2022-11-12T20:05:34.159Z,17.60
2022-11-12T20:10:36.732Z,16.80
2022-11-12T20:15:39.533Z,15.80
2022-11-12T20:20:49.777Z,15.20
2022-11-12T20:25:52.784Z,14.70
2022-11-12T20:31:00.077Z,12.60
2022-11-12T20:36:05.658Z,12.00
2022-11-12T20:41:13.266Z,12.30
2022-11-12T20:46:15.852Z,11.70
2022-11-12T20:51:25.236Z,11.40
2022-11-12T20:56:29.856Z,11.70
2022-11-12T21:01:33.291Z,11.30
2022-11-12T21:06:35.953Z,13.90
2022-11-12T21:11:38.596Z,11.60
2022-11-12T21:16:41.149Z,11.80
2022-11-12T21:21:43.747Z,12.20
2022-11-12T21:26:49.070Z,12.00
2022-11-12T21:31:51.604Z,12.20
2022-11-12T21:36:54.532Z,12.80
2022-11-12T21:41:57.183Z,14.10
2022-11-12T21:46:59.697Z,12.80
2022-11-12T21:52:02.265Z,12.90
2022-11-12T21:57:05.464Z,11.70
2022-11-12T22:02:11.133Z,11.60
2022-11-12T22:12:16.186Z,11.40
2022-11-12T22:17:18.706Z,11.20
2022-11-12T22:22:21.304Z,10.70
2022-11-12T22:27:25.573Z,11.20
2022-11-12T22:32:28.262Z,9.80
2022-11-12T22:37:30.845Z,10.50
2022-11-12T22:42:33.680Z,10.00
2022-11-12T22:47:37.046Z,12.00
2022-11-12T22:52:39.662Z,11.50
2022-11-12T22:57:44.633Z,12.70
2022-11-12T23:02:47.814Z,12.50
2022-11-12T23:07:51.435Z,12.90
2022-11-12T23:12:55.541Z,14.30
2022-11-12T23:17:58.269Z,15.50
2022-11-12T23:23:01.092Z,13.50
2022-11-12T23:28:07.622Z,13.40
2022-11-12T23:33:10.222Z,13.50
2022-11-12T23:38:12.912Z,13.60
2022-11-12T23:43:15.458Z,12.60
2022-11-12T23:48:19.061Z,13.50
2022-11-12T23:53:21.746Z,14.70
2022-11-12T23:58:25.046Z,12.80
